createdAt,value
2019-05-12T00:01:09.151Z,95445.00
2019-05-12T00:03:43.029Z,95444.00
2019-05-12T00:06:13.535Z,95445.00
2019-05-12T00:08:44.045Z,95459.00
2019-05-12T00:11:14.648Z,95445.00
2019-05-12T00:13:45.137Z,95446.00
2019-05-12T00:16:17.570Z,95439.00
2019-05-12T00:18:48.304Z,95451.00
2019-05-12T00:21:19.073Z,95451.00
2019-05-12T00:24:08.673Z,95458.00
2019-05-12T00:26:40.731Z,95464.00
2019-05-12T00:29:11.219Z,95450.00
2019-05-12T00:31:41.669Z,95452.00
2019-05-12T00:34:12.175Z,95453.00
2019-05-12T00:36:42.713Z,95447.00
2019-05-12T00:39:13.216Z,95450.00
2019-05-12T00:41:44.519Z,95442.00
2019-05-12T00:44:18.163Z,95447.00
2019-05-12T00:46:48.755Z,95458.00
2019-05-12T00:49:21.501Z,95447.00
2019-05-12T00:51:52.001Z,95462.00
2019-05-12T00:54:22.631Z,95465.00
2019-05-12T00:56:53.105Z,95446.00
2019-05-12T00:59:23.587Z,95458.00
2019-05-12T01:01:54.151Z,95459.00
2019-05-12T01:04:24.675Z,95470.00
2019-05-12T01:06:58.248Z,95465.00
2019-05-12T01:09:28.933Z,95467.00
2019-05-12T01:11:59.619Z,95459.00
2019-05-12T01:14:30.268Z,95470.00
2019-05-12T01:17:00.709Z,95472.00
2019-05-12T01:19:31.272Z,95479.00
2019-05-12T01:22:01.730Z,95473.00
2019-05-12T01:24:32.229Z,95488.00
2019-05-12T01:27:02.713Z,95482.00
2019-05-12T01:29:33.163Z,95489.00
2019-05-12T01:32:11.327Z,95495.00
2019-05-12T01:34:41.806Z,95498.00
2019-05-12T01:37:24.311Z,95502.00
2019-05-12T01:39:59.792Z,95506.00
2019-05-12T01:42:28.697Z,95518.00
2019-05-12T01:44:59.411Z,95519.00
2019-05-12T01:47:30.657Z,95519.00
2019-05-12T01:50:01.212Z,95523.00
2019-05-12T01:52:31.702Z,95534.00
2019-05-12T01:55:02.133Z,95543.00
2019-05-12T01:57:32.599Z,95543.00
2019-05-12T02:00:03.156Z,95545.00
2019-05-12T02:02:33.658Z,95539.00
2019-05-12T02:05:08.905Z,95541.00
2019-05-12T02:07:44.840Z,95550.00
2019-05-12T02:10:17.981Z,95543.00
2019-05-12T02:12:49.260Z,95549.00
2019-05-12T02:15:20.940Z,95552.00
2019-05-12T02:17:51.444Z,95554.00
2019-05-12T02:20:24.716Z,95560.00
2019-05-12T02:22:55.217Z,95548.00
2019-05-12T02:25:25.676Z,95561.00
2019-05-12T02:27:58.413Z,95566.00
2019-05-12T02:30:30.236Z,95561.00
2019-05-12T02:33:00.733Z,95556.00
2019-05-12T02:35:31.183Z,95559.00
2019-05-12T02:38:04.700Z,95576.00
2019-05-12T02:40:34.844Z,95577.00
2019-05-12T02:43:06.024Z,95584.00
2019-05-12T02:45:36.708Z,95584.00
2019-05-12T02:48:07.555Z,95593.00
2019-05-12T02:50:38.523Z,95595.00
2019-05-12T02:53:09.373Z,95602.00
2019-05-12T02:55:44.790Z,95597.00
2019-05-12T02:58:17.009Z,95607.00
2019-05-12T03:00:48.365Z,95606.00
2019-05-12T03:03:24.921Z,95613.00
2019-05-12T03:05:58.834Z,95631.00
2019-05-12T03:08:34.808Z,95623.00
2019-05-12T03:11:06.395Z,95619.00
2019-05-12T03:13:36.925Z,95624.00
2019-05-12T03:16:07.381Z,95626.00
2019-05-12T03:18:38.060Z,95644.00
2019-05-12T03:21:08.467Z,95638.00
2019-05-12T03:23:39.099Z,95659.00
2019-05-12T03:26:09.540Z,95654.00
2019-05-12T03:28:40.053Z,95644.00
2019-05-12T03:31:25.415Z,95654.00
2019-05-12T03:33:59.626Z,95658.00
2019-05-12T03:36:32.367Z,95669.00
2019-05-12T03:38:57.650Z,95668.00
2019-05-12T03:41:28.337Z,95687.00
2019-05-12T03:43:58.807Z,95686.00
2019-05-12T03:46:30.377Z,95690.00
2019-05-12T03:49:04.892Z,95700.00
2019-05-12T03:51:35.019Z,95695.00
2019-05-12T03:54:05.603Z,95702.00
2019-05-12T03:56:36.117Z,95707.00
2019-05-12T03:59:07.196Z,95708.00
2019-05-12T04:01:37.710Z,95719.00
2019-05-12T04:04:08.421Z,95732.00
2019-05-12T04:06:38.860Z,95743.00
2019-05-12T04:09:10.526Z,95732.00
2019-05-12T04:11:44.233Z,95733.00
2019-05-12T04:14:14.763Z,95749.00
2019-05-12T04:16:45.562Z,95766.00
2019-05-12T04:19:16.199Z,95762.00
2019-05-12T04:21:46.662Z,95769.00
2019-05-12T04:24:17.147Z,95773.00
2019-05-12T04:26:47.618Z,95771.00
2019-05-12T04:29:18.245Z,95786.00
2019-05-12T04:31:48.731Z,95792.00
2019-05-12T04:34:25.046Z,95795.00
2019-05-12T04:36:55.357Z,95809.00
2019-05-12T04:39:26.391Z,95810.00
2019-05-12T04:41:56.919Z,95808.00
2019-05-12T04:44:27.706Z,95816.00
2019-05-12T04:46:58.309Z,95828.00
2019-05-12T04:49:29.881Z,95838.00
2019-05-12T04:52:00.591Z,95845.00
2019-05-12T04:54:31.111Z,95851.00
2019-05-12T04:57:04.097Z,95855.00
2019-05-12T04:59:34.471Z,95864.00
2019-05-12T05:02:05.693Z,95870.00
2019-05-12T05:04:36.436Z,95869.00
2019-05-12T05:07:06.967Z,95872.00
2019-05-12T05:09:37.477Z,95889.00
2019-05-12T05:12:08.159Z,95892.00
2019-05-12T05:14:38.650Z,95903.00
2019-05-12T05:17:09.269Z,95909.00
2019-05-12T05:19:39.741Z,95916.00
2019-05-12T05:22:10.449Z,95913.00
2019-05-12T05:24:40.963Z,95922.00
2019-05-12T05:27:13.325Z,95931.00
2019-05-12T05:29:43.962Z,95926.00
2019-05-12T05:32:14.533Z,95941.00
2019-05-12T05:34:52.869Z,95943.00
2019-05-12T05:37:19.777Z,95950.00
2019-05-12T05:39:53.960Z,95952.00
2019-05-12T05:42:30.655Z,95965.00
2019-05-12T05:44:57.085Z,95960.00
2019-05-12T05:47:29.096Z,95981.00
2019-05-12T05:49:59.671Z,95983.00
2019-05-12T05:52:33.218Z,95980.00
2019-05-12T05:55:05.729Z,95985.00
2019-05-12T05:57:35.135Z,95997.00
2019-05-12T06:00:20.178Z,95999.00
2019-05-12T06:02:40.722Z,96005.00
2019-05-12T06:05:14.262Z,96009.00
2019-05-12T06:07:44.411Z,96011.00
2019-05-12T06:10:15.460Z,96020.00
2019-05-12T06:12:50.697Z,96015.00
2019-05-12T06:15:18.271Z,96020.00
2019-05-12T06:17:49.949Z,96028.00
2019-05-12T06:20:20.460Z,96037.00
2019-05-12T06:22:54.661Z,96036.00
2019-05-12T06:25:26.541Z,96038.00
2019-05-12T06:28:00.085Z,96042.00
2019-05-12T06:30:28.434Z,96050.00
2019-05-12T06:32:59.227Z,96048.00
2019-05-12T06:35:30.984Z,96061.00
2019-05-12T06:38:04.726Z,96061.00
2019-05-12T06:40:40.714Z,96060.00
2019-05-12T06:43:07.901Z,96072.00
2019-05-12T06:45:42.502Z,96066.00
2019-05-12T06:48:10.889Z,96075.00
2019-05-12T06:50:41.337Z,96078.00
2019-05-12T06:53:13.940Z,96077.00
2019-05-12T06:55:44.179Z,96084.00
2019-05-12T06:58:14.706Z,96088.00
2019-05-12T07:00:45.696Z,96101.00
2019-05-12T07:03:19.451Z,96091.00
2019-05-12T07:05:48.516Z,96101.00
2019-05-12T07:08:26.365Z,96101.00
2019-05-12T07:11:01.800Z,96108.00
2019-05-12T07:13:29.374Z,96111.00
2019-05-12T07:15:59.583Z,96127.00
2019-05-12T07:18:32.397Z,96113.00
2019-05-12T07:21:04.129Z,96119.00
2019-05-12T07:23:35.021Z,96125.00
2019-05-12T07:26:17.588Z,96132.00
2019-05-12T07:28:40.431Z,96132.00
2019-05-12T07:31:14.078Z,96141.00
2019-05-12T07:33:45.804Z,96138.00
2019-05-12T07:36:18.347Z,96139.00
2019-05-12T07:38:55.916Z,96138.00
2019-05-12T07:41:27.592Z,96143.00
2019-05-12T07:44:10.207Z,96158.00
2019-05-12T07:46:47.728Z,96154.00
2019-05-12T07:49:34.158Z,96167.00
2019-05-12T07:51:55.986Z,96155.00
2019-05-12T07:54:29.447Z,96164.00
2019-05-12T07:57:03.777Z,96170.00
2019-05-12T07:59:35.670Z,96165.00
2019-05-12T08:02:04.020Z,96163.00
2019-05-12T08:04:39.792Z,96172.00
2019-05-12T08:07:06.789Z,96170.00
2019-05-12T08:09:44.596Z,96172.00
2019-05-12T08:12:20.673Z,96176.00
2019-05-12T08:14:47.546Z,96174.00
2019-05-12T08:17:24.655Z,96185.00
2019-05-12T08:19:55.502Z,96188.00
2019-05-12T08:22:29.371Z,96187.00
2019-05-12T08:25:04.321Z,96189.00
2019-05-12T08:27:39.089Z,96191.00
2019-05-12T08:30:07.880Z,96207.00
2019-05-12T08:32:39.724Z,96207.00
2019-05-12T08:35:13.712Z,96205.00
2019-05-12T08:37:44.280Z,96213.00
2019-05-12T08:40:15.530Z,96220.00
2019-05-12T08:42:48.680Z,96215.00
2019-05-12T08:45:27.406Z,96219.00
2019-05-12T08:47:54.634Z,96222.00
2019-05-12T08:50:31.600Z,96223.00
2019-05-12T08:52:59.075Z,96237.00
2019-05-12T08:55:31.244Z,96243.00
2019-05-12T08:58:03.900Z,96251.00
2019-05-12T09:00:46.525Z,96244.00
2019-05-12T09:03:20.511Z,96257.00
2019-05-12T09:05:49.910Z,96253.00
2019-05-12T09:08:21.054Z,96257.00
2019-05-12T09:10:55.383Z,96271.00
2019-05-12T09:13:24.888Z,96275.00
2019-05-12T09:15:55.393Z,96280.00
2019-05-12T09:18:33.934Z,96287.00
2019-05-12T09:20:58.427Z,96288.00
2019-05-12T09:23:32.773Z,96298.00
2019-05-12T09:26:18.689Z,96289.00
2019-05-12T09:28:50.295Z,96302.00
2019-05-12T09:31:19.445Z,96304.00
2019-05-12T09:33:51.935Z,96299.00
2019-05-12T09:36:24.312Z,96313.00
2019-05-12T09:39:01.633Z,96316.00
2019-05-12T09:41:27.096Z,96326.00
2019-05-12T09:43:57.849Z,96315.00
2019-05-12T09:46:35.891Z,96329.00
2019-05-12T09:49:04.067Z,96321.00
2019-05-12T09:51:41.472Z,96319.00
2019-05-12T09:54:09.166Z,96329.00
2019-05-12T09:56:41.321Z,96329.00
2019-05-12T09:59:19.079Z,96324.00
2019-05-12T10:01:46.156Z,96337.00
2019-05-12T10:04:19.698Z,96332.00
2019-05-12T10:06:50.539Z,96330.00
2019-05-12T10:09:21.127Z,96343.00
2019-05-12T10:12:00.297Z,96344.00
2019-05-12T10:14:26.053Z,96349.00
2019-05-12T10:17:00.029Z,96354.00
2019-05-12T10:19:30.697Z,96342.00
2019-05-12T10:22:01.274Z,96350.00
2019-05-12T10:24:40.567Z,96351.00
2019-05-12T10:27:05.571Z,96350.00
2019-05-12T10:29:37.197Z,96360.00
2019-05-12T10:32:10.279Z,96345.00
2019-05-12T10:34:40.571Z,96352.00
2019-05-12T10:37:13.226Z,96353.00
2019-05-12T10:39:44.457Z,96365.00
2019-05-12T10:42:15.129Z,96362.00
2019-05-12T10:44:45.703Z,96363.00
2019-05-12T10:47:16.255Z,96368.00
2019-05-12T10:49:46.963Z,96368.00
2019-05-12T10:52:17.441Z,96371.00
2019-05-12T10:54:53.724Z,96375.00
2019-05-12T10:57:23.726Z,96377.00
2019-05-12T10:59:54.465Z,96380.00
2019-05-12T11:02:26.416Z,96374.00
2019-05-12T11:04:57.435Z,96378.00
2019-05-12T11:07:29.955Z,96380.00
2019-05-12T11:10:15.139Z,96376.00
2019-05-12T11:12:36.653Z,96383.00
2019-05-12T11:15:09.599Z,96384.00
2019-05-12T11:18:14.188Z,96386.00
2019-05-12T11:20:45.086Z,96393.00
2019-05-12T11:23:24.714Z,96392.00
2019-05-12T11:25:56.591Z,96399.00
2019-05-12T11:28:27.190Z,96395.00
2019-05-12T11:30:57.527Z,96404.00
2019-05-12T11:33:28.102Z,96406.00
2019-05-12T11:35:58.706Z,96406.00
2019-05-12T11:38:30.877Z,96407.00
2019-05-12T11:41:04.124Z,96412.00
2019-05-12T11:43:35.649Z,96417.00
2019-05-12T11:46:07.305Z,96413.00
2019-05-12T11:48:40.315Z,96413.00
2019-05-12T11:51:14.305Z,96416.00
2019-05-12T11:53:44.571Z,96420.00
2019-05-12T11:56:15.076Z,96429.00
2019-05-12T11:58:51.354Z,96421.00
2019-05-12T12:01:24.274Z,96417.00
2019-05-12T12:03:54.942Z,96421.00
2019-05-12T12:06:25.655Z,96430.00
2019-05-12T12:08:56.198Z,96423.00
2019-05-12T12:11:28.116Z,96431.00
2019-05-12T12:14:00.222Z,96439.00
2019-05-12T12:16:34.129Z,96441.00
2019-05-12T12:19:05.863Z,96441.00
2019-05-12T12:21:40.394Z,96442.00
2019-05-12T12:24:08.942Z,96448.00
2019-05-12T12:26:39.859Z,96456.00
2019-05-12T12:29:10.377Z,96462.00
2019-05-12T12:31:52.139Z,96449.00
2019-05-12T12:34:29.824Z,96452.00
2019-05-12T12:36:56.188Z,96452.00
2019-05-12T12:39:26.849Z,96461.00
2019-05-12T12:42:00.565Z,96459.00
2019-05-12T12:44:29.756Z,96463.00
2019-05-12T12:47:01.832Z,96474.00
2019-05-12T12:49:33.943Z,96461.00
2019-05-12T12:52:05.201Z,96472.00
2019-05-12T12:54:35.674Z,96483.00
2019-05-12T12:57:09.807Z,96484.00
2019-05-12T12:59:42.941Z,96469.00
2019-05-12T13:02:14.159Z,96472.00
2019-05-12T13:04:48.440Z,96475.00
2019-05-12T13:07:16.500Z,96477.00
2019-05-12T13:09:47.350Z,96480.00
2019-05-12T13:12:19.784Z,96487.00
2019-05-12T13:14:50.330Z,96490.00
2019-05-12T13:17:20.952Z,96475.00
2019-05-12T13:19:54.735Z,96475.00
2019-05-12T13:22:24.508Z,96484.00
2019-05-12T13:24:58.215Z,96471.00
2019-05-12T13:27:34.688Z,96471.00
2019-05-12T13:30:05.402Z,96484.00
2019-05-12T13:32:37.989Z,96477.00
2019-05-12T13:35:14.696Z,96479.00
2019-05-12T13:37:43.294Z,96478.00
2019-05-12T13:40:14.980Z,96484.00
2019-05-12T13:42:45.465Z,96483.00
2019-05-12T13:45:20.143Z,96487.00
2019-05-12T13:47:53.057Z,96487.00
2019-05-12T13:50:26.368Z,96484.00
2019-05-12T13:53:01.242Z,96492.00
2019-05-12T13:55:29.000Z,96488.00
2019-05-12T13:57:59.558Z,96495.00
2019-05-12T14:00:30.138Z,96495.00
2019-05-12T14:03:04.569Z,96497.00
2019-05-12T14:05:33.703Z,96498.00
2019-05-12T14:08:04.425Z,96498.00
2019-05-12T14:10:37.665Z,96511.00
2019-05-12T14:13:11.154Z,96507.00
2019-05-12T14:15:44.358Z,96508.00
2019-05-12T14:18:16.473Z,96512.00
2019-05-12T14:20:50.768Z,96516.00
2019-05-12T14:23:20.239Z,96514.00
2019-05-12T14:25:50.781Z,96515.00
2019-05-12T14:28:24.558Z,96503.00
2019-05-12T14:30:56.189Z,96517.00
2019-05-12T14:33:29.939Z,96518.00
2019-05-12T14:35:59.527Z,96524.00
2019-05-12T14:38:30.137Z,96528.00
2019-05-12T14:41:01.186Z,96532.00
2019-05-12T14:43:34.092Z,96526.00
2019-05-12T14:46:10.159Z,96531.00
2019-05-12T14:48:40.275Z,96540.00
2019-05-12T14:51:10.594Z,96536.00
2019-05-12T14:53:44.448Z,96532.00
2019-05-12T14:56:14.552Z,96529.00
2019-05-12T14:58:50.278Z,96532.00
2019-05-12T15:01:18.597Z,96533.00
2019-05-12T15:03:50.565Z,96533.00
2019-05-12T15:06:25.713Z,96536.00
2019-05-12T15:08:54.900Z,96541.00
2019-05-12T15:11:28.204Z,96552.00
2019-05-12T15:13:59.133Z,96537.00
2019-05-12T15:16:31.821Z,96544.00
2019-05-12T15:19:09.586Z,96544.00
2019-05-12T15:21:43.536Z,96541.00
2019-05-12T15:24:15.234Z,96551.00
2019-05-12T15:26:50.449Z,96546.00
2019-05-12T15:32:00.551Z,96552.00
2019-05-12T15:34:33.765Z,96560.00
2019-05-12T15:37:06.360Z,96551.00
2019-05-12T15:39:43.894Z,96558.00
2019-05-12T15:42:33.671Z,96562.00
2019-05-12T15:45:11.688Z,96560.00
2019-05-12T15:47:40.902Z,96556.00
2019-05-12T15:50:14.319Z,96555.00
2019-05-12T15:52:45.478Z,96568.00
2019-05-12T15:55:18.402Z,96570.00
2019-05-12T15:57:50.845Z,96570.00
2019-05-12T16:00:24.382Z,96578.00
2019-05-12T16:02:54.273Z,96586.00
2019-05-12T16:05:29.393Z,96582.00
2019-05-12T16:07:57.581Z,96583.00
2019-05-12T16:10:29.525Z,96586.00
2019-05-12T16:13:02.542Z,96586.00
2019-05-12T16:15:36.397Z,96593.00
2019-05-12T16:18:09.888Z,96591.00
2019-05-12T16:20:44.104Z,96596.00
2019-05-12T16:23:23.821Z,96595.00
2019-05-12T16:25:47.759Z,96597.00
2019-05-12T16:28:23.384Z,96595.00
2019-05-12T16:30:53.601Z,96605.00
2019-05-12T16:33:26.646Z,96605.00
2019-05-12T16:36:00.066Z,96603.00
2019-05-12T16:38:31.058Z,96605.00
2019-05-12T16:41:03.840Z,96611.00
2019-05-12T16:43:35.363Z,96621.00
2019-05-12T16:46:08.641Z,96618.00
2019-05-12T16:48:42.297Z,96623.00
2019-05-12T16:51:13.898Z,96615.00
2019-05-12T16:53:44.598Z,96624.00
2019-05-12T16:56:19.998Z,96623.00
2019-05-12T16:58:54.190Z,96618.00
2019-05-12T17:01:28.190Z,96620.00
2019-05-12T17:04:00.820Z,96624.00
2019-05-12T17:06:36.809Z,96631.00
2019-05-12T17:09:06.396Z,96629.00
2019-05-12T17:11:48.254Z,96635.00
2019-05-12T17:14:10.241Z,96632.00
2019-05-12T17:16:46.560Z,96634.00
2019-05-12T17:19:15.466Z,96640.00
2019-05-12T17:21:49.464Z,96637.00
2019-05-12T17:24:24.046Z,96644.00
2019-05-12T17:26:55.181Z,96651.00
2019-05-12T17:29:25.867Z,96637.00
2019-05-12T17:32:03.961Z,96650.00
2019-05-12T17:34:34.194Z,96659.00
2019-05-12T17:37:05.289Z,96653.00
2019-05-12T17:39:39.089Z,96658.00
2019-05-12T17:42:14.828Z,96674.00
2019-05-12T17:44:44.972Z,96670.00
2019-05-12T17:47:21.237Z,96680.00
2019-05-12T17:49:50.782Z,96678.00
2019-05-12T17:52:23.461Z,96695.00
2019-05-12T17:55:04.546Z,96689.00
2019-05-12T17:57:31.245Z,96707.00
2019-05-12T18:00:06.285Z,96703.00
2019-05-12T18:02:35.155Z,96705.00
2019-05-12T18:05:07.609Z,96702.00
2019-05-12T18:07:40.206Z,96700.00
2019-05-12T18:10:13.539Z,96705.00
2019-05-12T18:12:45.242Z,96702.00
2019-05-12T18:15:25.675Z,96695.00
2019-05-12T18:17:50.275Z,96694.00
2019-05-12T18:20:24.726Z,96694.00
2019-05-12T18:22:56.267Z,96699.00
2019-05-12T18:25:32.113Z,96700.00
2019-05-12T18:28:05.597Z,96707.00
2019-05-12T18:30:37.683Z,96699.00
2019-05-12T18:33:13.739Z,96707.00
2019-05-12T18:35:44.937Z,96714.00
2019-05-12T18:38:22.737Z,96715.00
2019-05-12T18:40:54.896Z,96719.00
2019-05-12T18:43:29.477Z,96721.00
2019-05-12T18:46:05.534Z,96712.00
2019-05-12T18:48:34.395Z,96716.00
2019-05-12T18:51:11.779Z,96717.00
2019-05-12T18:53:43.651Z,96723.00
2019-05-12T18:56:21.758Z,96717.00
2019-05-12T18:58:54.336Z,96719.00
2019-05-12T19:01:33.413Z,96729.00
2019-05-12T19:04:04.879Z,96731.00
2019-05-12T19:06:37.151Z,96728.00
2019-05-12T19:09:19.712Z,96720.00
2019-05-12T19:12:15.776Z,96720.00
2019-05-12T19:14:43.644Z,96720.00
2019-05-12T19:17:24.552Z,96729.00
2019-05-12T19:20:00.014Z,96724.00
2019-05-12T19:22:30.502Z,96721.00
2019-05-12T19:25:06.880Z,96726.00
2019-05-12T19:27:45.721Z,96739.00
2019-05-12T19:30:25.274Z,96723.00
2019-05-12T19:33:10.372Z,96740.00
2019-05-12T19:35:38.270Z,96735.00
2019-05-12T19:38:15.551Z,96733.00
2019-05-12T19:40:55.251Z,96750.00
2019-05-12T19:43:23.765Z,96748.00
2019-05-12T19:49:50.574Z,96749.00
2019-05-12T19:52:24.395Z,96749.00
2019-05-12T19:54:56.745Z,96754.00
2019-05-12T19:57:33.633Z,96765.00
2019-05-12T20:00:08.174Z,96759.00
2019-05-12T20:02:40.393Z,96761.00
2019-05-12T20:05:17.244Z,96762.00
2019-05-12T20:07:49.846Z,96773.00
2019-05-12T20:10:25.626Z,96765.00
2019-05-12T20:12:57.128Z,96762.00
2019-05-12T20:15:30.135Z,96763.00
2019-05-12T20:18:04.101Z,96765.00
2019-05-12T20:20:41.243Z,96769.00
2019-05-12T20:23:07.367Z,96777.00
2019-05-12T20:25:38.446Z,96780.00
2019-05-12T20:28:11.271Z,96769.00
2019-05-12T20:30:43.650Z,96775.00
2019-05-12T20:33:17.174Z,96781.00
2019-05-12T20:35:49.481Z,96787.00
2019-05-12T20:38:25.486Z,96790.00
2019-05-12T20:40:54.098Z,96790.00
2019-05-12T20:43:32.398Z,96792.00
2019-05-12T20:45:57.541Z,96790.00
2019-05-12T20:48:31.095Z,96791.00
2019-05-12T20:51:03.503Z,96793.00
2019-05-12T20:53:36.734Z,96792.00
2019-05-12T20:56:06.687Z,96797.00
2019-05-12T20:58:43.682Z,96793.00
2019-05-12T21:01:10.241Z,96805.00
2019-05-12T21:03:49.063Z,96810.00
2019-05-12T21:06:18.256Z,96815.00
2019-05-12T21:08:53.508Z,96804.00
2019-05-12T21:11:21.109Z,96802.00
2019-05-12T21:13:54.362Z,96812.00
2019-05-12T21:16:31.256Z,96811.00
2019-05-12T21:19:08.942Z,96816.00
2019-05-12T21:21:36.307Z,96814.00
2019-05-12T21:24:05.039Z,96806.00
2019-05-12T21:26:37.908Z,96809.00
2019-05-12T21:29:08.646Z,96824.00
2019-05-12T21:31:46.210Z,96817.00
2019-05-12T21:34:21.013Z,96822.00
2019-05-12T21:36:49.958Z,96822.00
2019-05-12T21:39:21.519Z,96824.00
2019-05-12T21:41:54.751Z,96824.00
2019-05-12T21:44:24.628Z,96826.00
2019-05-12T21:47:03.630Z,96827.00
2019-05-12T21:49:29.196Z,96821.00
2019-05-12T21:52:05.851Z,96817.00
2019-05-12T21:54:35.973Z,96816.00
2019-05-12T21:57:05.188Z,96825.00
2019-05-12T21:59:39.521Z,96832.00
2019-05-12T22:02:08.416Z,96832.00
2019-05-12T22:04:43.550Z,96829.00
2019-05-12T22:07:14.576Z,96827.00
2019-05-12T22:09:46.816Z,96834.00
2019-05-12T22:12:17.050Z,96833.00
2019-05-12T22:14:47.720Z,96837.00
2019-05-12T22:17:18.232Z,96833.00
2019-05-12T22:19:48.855Z,96834.00
2019-05-12T22:22:24.608Z,96833.00
2019-05-12T22:24:53.750Z,96837.00
2019-05-12T22:27:27.117Z,96833.00
2019-05-12T22:29:57.287Z,96835.00
2019-05-12T22:32:29.705Z,96840.00
2019-05-12T22:35:00.372Z,96839.00
2019-05-12T22:37:34.890Z,96843.00
2019-05-12T22:40:06.291Z,96838.00
2019-05-12T22:42:36.223Z,96844.00
2019-05-12T22:45:07.245Z,96838.00
2019-05-12T22:47:38.039Z,96843.00
2019-05-12T22:50:08.921Z,96842.00
2019-05-12T22:52:47.247Z,96837.00
2019-05-12T22:55:14.015Z,96848.00
2019-05-12T22:57:44.729Z,96836.00
2019-05-12T23:00:19.226Z,96841.00
2019-05-12T23:02:53.665Z,96837.00
2019-05-12T23:05:24.281Z,96837.00
2019-05-12T23:07:54.751Z,96844.00
2019-05-12T23:10:25.258Z,96842.00
2019-05-12T23:13:01.389Z,96846.00
2019-05-12T23:15:27.989Z,96850.00
2019-05-12T23:17:58.631Z,96851.00
2019-05-12T23:20:30.946Z,96849.00
2019-05-12T23:23:03.665Z,96853.00
2019-05-12T23:25:33.840Z,96849.00
2019-05-12T23:28:08.517Z,96835.00
2019-05-12T23:30:43.703Z,96844.00
2019-05-12T23:33:14.134Z,96844.00
2019-05-12T23:35:44.457Z,96844.00
2019-05-12T23:38:18.814Z,96843.00
2019-05-12T23:40:47.108Z,96840.00
2019-05-12T23:43:17.816Z,96836.00
2019-05-12T23:45:48.306Z,96829.00
2019-05-12T23:48:18.905Z,96837.00
2019-05-12T23:50:49.499Z,96839.00
2019-05-12T23:53:21.259Z,96830.00
2019-05-12T23:55:54.011Z,96827.00
2019-05-12T23:58:25.428Z,96831.00
